createdAt,value
2024-02-02T00:03:14.430Z,2.60
2024-02-02T00:08:18.091Z,2.80
2024-02-02T00:13:21.205Z,3.40
2024-02-02T00:18:24.510Z,3.00
2024-02-02T00:23:27.733Z,2.80
2024-02-02T00:28:30.869Z,3.10
2024-02-02T00:33:34.160Z,3.20
2024-02-02T00:38:37.374Z,2.80
2024-02-02T00:43:40.678Z,3.30
2024-02-02T00:48:44.385Z,3.50
2024-02-02T00:53:47.839Z,2.60
2024-02-02T00:58:51.145Z,3.00
2024-02-02T01:03:54.198Z,2.90
2024-02-02T01:08:57.372Z,2.60
2024-02-02T01:14:00.548Z,2.90
2024-02-02T01:19:04.015Z,2.60
2024-02-02T01:24:07.879Z,3.20
2024-02-02T01:29:11.118Z,2.60
2024-02-02T01:34:14.450Z,3.00
2024-02-02T01:39:18.213Z,2.70
2024-02-02T01:44:21.343Z,3.00
2024-02-02T01:49:24.688Z,3.50
2024-02-02T01:54:29.060Z,2.50
2024-02-02T01:59:32.713Z,2.30
2024-02-02T02:04:36.049Z,3.20
2024-02-02T02:09:39.231Z,2.40
2024-02-02T02:14:43.432Z,2.90
2024-02-02T02:19:50.345Z,2.30
2024-02-02T02:24:53.480Z,2.20
2024-02-02T02:29:56.609Z,2.20
2024-02-02T02:35:00.007Z,2.90
2024-02-02T02:40:03.328Z,4.10
2024-02-02T02:45:06.787Z,2.60
2024-02-02T02:50:13.562Z,3.30
2024-02-02T02:55:16.660Z,3.60
2024-02-02T03:00:21.171Z,3.20
2024-02-02T03:05:25.251Z,3.10
2024-02-02T03:10:28.946Z,2.50
2024-02-02T03:15:33.235Z,3.30
2024-02-02T03:20:36.495Z,3.50
2024-02-02T03:25:39.616Z,3.20
2024-02-02T03:30:42.832Z,3.00
2024-02-02T03:35:46.024Z,2.40
2024-02-02T03:40:49.129Z,2.60
2024-02-02T03:45:52.252Z,2.00
2024-02-02T03:50:55.417Z,3.10
2024-02-02T03:55:59.608Z,2.90
2024-02-02T04:01:02.809Z,3.20
2024-02-02T04:06:06.755Z,2.40
2024-02-02T04:11:09.939Z,2.80
2024-02-02T04:16:12.944Z,3.60
2024-02-02T04:21:16.416Z,3.40
2024-02-02T04:26:19.581Z,2.60
2024-02-02T04:31:22.696Z,3.30
2024-02-02T04:36:25.930Z,3.40
2024-02-02T04:41:29.101Z,3.40
2024-02-02T04:46:32.210Z,2.50
2024-02-02T04:51:36.658Z,3.50
2024-02-02T04:56:39.864Z,2.10
2024-02-02T05:01:43.007Z,2.80
2024-02-02T05:06:46.180Z,2.40
2024-02-02T05:11:49.409Z,2.90
2024-02-02T05:16:52.502Z,3.30
2024-02-02T05:21:55.624Z,2.80
2024-02-02T05:26:58.748Z,3.80
2024-02-02T05:32:02.036Z,3.80
2024-02-02T05:37:05.613Z,4.40
2024-02-02T05:42:08.713Z,4.60
2024-02-02T05:47:12.088Z,3.50
2024-02-02T05:52:15.185Z,2.80
2024-02-02T05:57:18.220Z,2.80
2024-02-02T06:02:22.649Z,2.60
2024-02-02T06:07:26.086Z,2.30
2024-02-02T06:12:29.293Z,3.20
2024-02-02T06:17:32.502Z,2.50
2024-02-02T06:22:35.801Z,3.60
2024-02-02T06:27:39.321Z,2.30
2024-02-02T06:32:47.388Z,3.10
2024-02-02T06:37:50.543Z,4.00
2024-02-02T06:42:53.755Z,3.70
2024-02-02T06:47:56.987Z,3.20
2024-02-02T06:53:00.174Z,3.10
2024-02-02T06:58:05.743Z,3.60
2024-02-02T07:03:08.908Z,2.90
2024-02-02T07:08:12.576Z,3.50
2024-02-02T07:13:15.835Z,3.90
2024-02-02T07:18:38.213Z,2.60
2024-02-02T07:23:42.961Z,3.90
2024-02-02T07:28:46.317Z,3.10
2024-02-02T07:33:50.412Z,3.90
2024-02-02T07:38:57.566Z,4.00
2024-02-02T07:44:03.110Z,3.80
2024-02-02T07:49:06.517Z,5.30
2024-02-02T07:54:10.438Z,4.50
2024-02-02T07:59:13.481Z,5.60
2024-02-02T08:04:16.890Z,6.20
2024-02-02T08:09:20.289Z,5.60
2024-02-02T08:14:23.520Z,5.40
2024-02-02T08:19:27.063Z,4.80
2024-02-02T08:24:30.354Z,4.30
2024-02-02T08:29:33.454Z,4.40
2024-02-02T08:34:36.857Z,5.70
2024-02-02T08:39:40.248Z,4.80
2024-02-02T08:44:43.863Z,5.40
2024-02-02T08:49:57.736Z,3.50
2024-02-02T08:55:04.518Z,3.80
2024-02-02T09:00:15.992Z,3.60
2024-02-02T09:05:26.350Z,3.40
2024-02-02T09:10:33.237Z,3.40
2024-02-02T09:15:36.786Z,3.70
2024-02-02T09:20:50.543Z,5.00
2024-02-02T09:25:54.598Z,4.60
2024-02-02T09:31:06.271Z,5.60
2024-02-02T09:36:10.149Z,5.20
2024-02-02T09:41:41.193Z,6.00
2024-02-02T09:46:57.196Z,5.20
2024-02-02T09:52:21.376Z,5.70
2024-02-02T09:57:30.541Z,5.60
2024-02-02T10:03:03.035Z,4.60
2024-02-02T10:08:44.539Z,5.00
2024-02-02T10:13:53.681Z,3.90
2024-02-02T10:19:06.192Z,4.40
2024-02-02T10:24:22.165Z,5.90
2024-02-02T10:29:41.724Z,5.20
2024-02-02T10:35:10.542Z,8.50
2024-02-02T10:40:38.188Z,5.00
2024-02-02T10:45:58.469Z,5.30
2024-02-02T10:51:37.953Z,5.90
2024-02-02T10:57:02.440Z,6.60
2024-02-02T11:02:11.974Z,5.80
2024-02-02T11:07:22.857Z,20.80
2024-02-02T11:13:01.774Z,6.10
2024-02-02T11:18:51.807Z,7.80
2024-02-02T11:24:24.744Z,5.30
2024-02-02T11:29:46.463Z,5.30
2024-02-02T11:35:22.408Z,5.80
2024-02-02T11:40:28.446Z,5.70
2024-02-02T11:45:39.803Z,4.00
2024-02-02T11:50:45.465Z,4.40
2024-02-02T11:55:52.911Z,3.60
2024-02-02T12:01:30.218Z,4.40
2024-02-02T12:07:02.897Z,6.70
2024-02-02T12:12:14.280Z,12.00
2024-02-02T12:17:19.115Z,5.70
2024-02-02T12:22:23.727Z,5.90
2024-02-02T12:27:27.369Z,5.10
2024-02-02T12:32:30.865Z,4.80
2024-02-02T12:37:52.113Z,4.10
2024-02-02T12:42:58.280Z,4.20
2024-02-02T12:48:01.953Z,4.60
2024-02-02T12:53:06.565Z,6.60
2024-02-02T12:58:09.766Z,4.50
2024-02-02T13:03:14.190Z,4.00
2024-02-02T13:08:29.606Z,4.40
2024-02-02T13:13:35.010Z,6.70
2024-02-02T13:18:38.622Z,5.30
2024-02-02T13:23:44.207Z,4.30
2024-02-02T13:28:53.278Z,4.70
2024-02-02T13:34:06.467Z,4.50
2024-02-02T13:39:20.471Z,5.00
2024-02-02T13:44:24.573Z,4.40
2024-02-02T13:49:35.017Z,5.50
2024-02-02T13:54:38.969Z,5.60
2024-02-02T13:59:42.946Z,4.80
2024-02-02T14:04:47.155Z,5.90
2024-02-02T14:10:10.765Z,4.00
2024-02-02T14:15:14.265Z,6.80
2024-02-02T14:20:17.529Z,9.20
2024-02-02T14:25:30.991Z,7.40
2024-02-02T14:30:37.121Z,5.70
2024-02-02T14:35:40.992Z,6.00
2024-02-02T14:40:44.311Z,7.10
2024-02-02T14:45:48.364Z,8.20
2024-02-02T14:50:52.272Z,8.50
2024-02-02T14:55:55.376Z,6.60
2024-02-02T15:01:02.006Z,6.00
2024-02-02T15:06:05.906Z,5.60
2024-02-02T15:11:10.530Z,5.00
2024-02-02T15:16:14.763Z,4.40
2024-02-02T15:21:18.221Z,5.90
2024-02-02T15:26:21.592Z,5.70
2024-02-02T15:31:25.018Z,5.70
2024-02-02T15:36:30.254Z,8.80
2024-02-02T15:41:36.265Z,6.90
2024-02-02T15:46:39.586Z,5.40
2024-02-02T15:51:43.514Z,5.50
2024-02-02T15:56:47.151Z,7.10
2024-02-02T16:01:50.837Z,7.70
2024-02-02T16:07:03.866Z,6.40
2024-02-02T16:12:14.504Z,6.00
2024-02-02T16:17:27.674Z,7.20
2024-02-02T16:22:31.714Z,7.60
2024-02-02T16:27:36.375Z,8.90
2024-02-02T16:32:40.018Z,7.80
2024-02-02T16:37:43.220Z,8.40
2024-02-02T16:42:47.034Z,8.90
2024-02-02T16:47:50.502Z,8.90
2024-02-02T16:52:53.674Z,8.20
2024-02-02T16:57:56.826Z,8.90
2024-02-02T17:03:00.155Z,7.80
2024-02-02T17:08:05.456Z,7.30
2024-02-02T17:13:08.572Z,11.20
2024-02-02T17:18:11.859Z,12.00
2024-02-02T17:23:16.139Z,10.20
2024-02-02T17:28:19.298Z,8.20
2024-02-02T17:33:22.546Z,7.20
2024-02-02T17:38:25.750Z,6.00
2024-02-02T17:43:29.529Z,7.50
2024-02-02T17:48:34.090Z,7.60
2024-02-02T17:53:41.104Z,8.20
2024-02-02T17:58:44.959Z,7.80
2024-02-02T18:03:48.313Z,6.40
2024-02-02T18:08:51.682Z,6.30
2024-02-02T18:13:54.884Z,5.90
2024-02-02T18:18:58.380Z,7.60
2024-02-02T18:24:01.731Z,7.70
2024-02-02T18:29:05.282Z,6.50
2024-02-02T18:34:09.016Z,9.30
2024-02-02T18:39:14.554Z,7.20
2024-02-02T18:44:17.750Z,9.40
2024-02-02T18:49:21.047Z,8.60
2024-02-02T18:54:24.424Z,8.60
2024-02-02T18:59:27.685Z,9.20
2024-02-02T19:04:30.761Z,8.00
2024-02-02T19:09:34.360Z,7.20
2024-02-02T19:14:38.204Z,6.60
2024-02-02T19:19:41.401Z,7.20
2024-02-02T19:24:47.621Z,6.80
2024-02-02T19:29:51.057Z,6.20
2024-02-02T19:34:54.242Z,6.40
2024-02-02T19:39:58.515Z,8.70
2024-02-02T19:45:02.051Z,8.60
2024-02-02T19:50:06.587Z,10.00
2024-02-02T19:55:10.485Z,8.90
2024-02-02T20:00:15.203Z,9.80
2024-02-02T20:05:21.929Z,11.40
2024-02-02T20:10:27.573Z,9.30
2024-02-02T20:15:33.909Z,8.40
2024-02-02T20:20:38.327Z,7.60
2024-02-02T20:25:41.798Z,8.30
2024-02-02T20:30:45.595Z,8.50
2024-02-02T20:35:48.773Z,9.10
2024-02-02T20:40:52.145Z,11.10
2024-02-02T20:45:55.506Z,10.00
2024-02-02T20:50:59.444Z,10.60
2024-02-02T20:56:02.789Z,9.30
2024-02-02T21:01:07.592Z,7.40
2024-02-02T21:06:11.103Z,9.90
2024-02-02T21:11:15.135Z,9.50
2024-02-02T21:16:18.893Z,8.60
2024-02-02T21:21:22.824Z,10.50
2024-02-02T21:26:28.258Z,10.50
2024-02-02T21:31:31.466Z,10.00
2024-02-02T21:36:35.166Z,9.10
2024-02-02T21:41:39.424Z,8.20
2024-02-02T21:46:44.498Z,10.10
2024-02-02T21:51:47.681Z,9.10
2024-02-02T21:56:51.285Z,8.10
2024-02-02T22:01:54.525Z,10.00
2024-02-02T22:06:57.923Z,9.50
2024-02-02T22:12:01.163Z,6.90
2024-02-02T22:17:04.783Z,8.80
2024-02-02T22:22:08.298Z,10.80
2024-02-02T22:27:11.671Z,6.70
2024-02-02T22:32:19.991Z,10.60
2024-02-02T22:37:23.354Z,10.30
2024-02-02T22:42:28.238Z,9.10
2024-02-02T22:47:31.321Z,9.30
2024-02-02T22:52:34.427Z,8.10
2024-02-02T22:57:37.599Z,10.10
2024-02-02T23:02:40.650Z,8.10
2024-02-02T23:07:44.489Z,10.70
2024-02-02T23:12:48.069Z,9.20
2024-02-02T23:17:51.800Z,9.60
2024-02-02T23:22:54.941Z,9.90
2024-02-02T23:27:58.357Z,9.60
2024-02-02T23:33:01.596Z,8.90
2024-02-02T23:38:04.881Z,8.40
2024-02-02T23:43:07.981Z,8.80
2024-02-02T23:48:11.322Z,9.30
2024-02-02T23:53:14.601Z,7.10
2024-02-02T23:58:18.344Z,7.30
